sensor_id;sensor_type;location;lat;lon;timestamp;noise_LAeq;noise_LA_min;noise_LA_max;noise_LA01;noise_LA95
67308;Laerm;57662;51.436;5.978;2023-03-01T00:00:02;46.47;41.64;51.04;;
67308;Laerm;57662;51.436;5.978;2023-03-01T00:00:13;46.11;40.59;55.19;;
67308;Laerm;57662;51.436;5.978;2023-03-01T00:00:23;43.60;39.68;46.24;;
67308;Laerm;57662;51.436;5.978;2023-03-01T00:00:34;44.99;40.74;47.28;;
67308;Laerm;57662;51.436;5.978;2023-03-01T00:00:44;49.63;42.80;57.80;;
67308;Laerm;57662;51.436;5.978;2023-03-01T00:01:03;68.99;57.06;72.06;;
67308;Laerm;57662;51.436;5.978;2023-03-01T00:01:15;68.54;64.74;73.63;;
67308;Laerm;57662;51.436;5.978;2023-03-01T00:01:28;59.28;39.97;70.55;;
67308;Laerm;57662;51.436;5.978;2023-03-01T00:01:39;37.71;33.25;42.07;;
67308;Laerm;57662;51.436;5.978;2023-03-01T00:01:49;35.17;33.11;36.95;;
67308;Laerm;57662;51.436;5.978;2023-03-01T00:01:59;37.75;34.86;41.36;;
67308;Laerm;57662;51.436;5.978;2023-03-01T00:02:10;35.66;33.27;38.00;;
67308;Laerm;57662;51.436;5.978;2023-03-01T00:02:20;34.23;32.47;36.15;;
67308;Laerm;57662;51.436;5.978;2023-03-01T00:02:31;33.98;32.21;36.03;;
67308;Laerm;57662;51.436;5.978;2023-03-01T00:02:41;34.12;32.05;35.70;;
67308;Laerm;57662;51.436;5.978;2023-03-01T00:02:52;34.08;32.53;35.93;;
67308;Laerm;57662;51.436;5.978;2023-03-01T00:03:02;34.15;32.57;35.52;;
67308;Laerm;57662;51.436;5.978;2023-03-01T00:03:12;34.18;32.57;38.72;;
67308;Laerm;57662;51.436;5.978;2023-03-01T00:03:23;33.98;32.41;36.03;;
67308;Laerm;57662;51.436;5.978;2023-03-01T00:03:34;33.78;32.07;35.95;;
67308;Laerm;57662;51.436;5.978;2023-03-01T00:03:44;33.70;32.14;35.74;;
67308;Laerm;57662;51.436;5.978;2023-03-01T00:03:56;33.89;32.02;35.59;;
67308;Laerm;57662;51.436;5.978;2023-03-01T00:04:06;34.01;32.43;36.20;;
67308;Laerm;57662;51.436;5.978;2023-03-01T00:04:17;33.99;32.35;35.61;;
67308;Laerm;57662;51.436;5.978;2023-03-01T00:04:27;33.75;32.48;35.72;;
67308;Laerm;57662;51.436;5.978;2023-03-01T00:04:38;33.67;32.18;35.58;;
67308;Laerm;57662;51.436;5.978;2023-03-01T00:04:48;33.73;32.08;35.12;;
67308;Laerm;57662;51.436;5.978;2023-03-01T00:04:58;33.64;31.97;35.04;;
67308;Laerm;57662;51.436;5.978;2023-03-01T00:05:08;33.71;32.24;35.17;;
67308;Laerm;57662;51.436;5.978;2023-03-01T00:05:19;33.79;32.24;35.52;;
67308;Laerm;57662;51.436;5.978;2023-03-01T00:05:29;33.75;31.87;35.50;;
67308;Laerm;57662;51.436;5.978;2023-03-01T00:05:46;33.68;31.69;35.19;;
67308;Laerm;57662;51.436;5.978;2023-03-01T00:05:57;33.68;32.06;35.72;;
67308;Laerm;57662;51.436;5.978;2023-03-01T00:06:07;33.80;32.12;35.35;;
67308;Laerm;57662;51.436;5.978;2023-03-01T00:06:18;33.84;32.18;35.42;;
67308;Laerm;57662;51.436;5.978;2023-03-01T00:06:29;34.00;32.18;35.75;;
67308;Laerm;57662;51.436;5.978;2023-03-01T00:06:39;34.48;32.24;50.17;;
67308;Laerm;57662;51.436;5.978;2023-03-01T00:06:49;33.88;32.02;35.64;;
67308;Laerm;57662;51.436;5.978;2023-03-01T00:07:00;33.90;31.88;36.30;;
67308;Laerm;57662;51.436;5.978;2023-03-01T00:07:11;33.88;31.78;35.69;;
67308;Laerm;57662;51.436;5.978;2023-03-01T00:07:21;33.83;32.11;35.72;;
67308;Laerm;57662;51.436;5.978;2023-03-01T00:07:31;33.84;32.12;35.52;;
67308;Laerm;57662;51.436;5.978;2023-03-01T00:07:42;33.87;32.34;35.33;;
67308;Laerm;57662;51.436;5.978;2023-03-01T00:07:53;33.73;32.15;35.23;;
67308;Laerm;57662;51.436;5.978;2023-03-01T00:08:03;33.65;32.16;35.47;;
67308;Laerm;57662;51.436;5.978;2023-03-01T00:08:13;33.58;32.30;34.94;;
67308;Laerm;57662;51.436;5.978;2023-03-01T00:08:25;33.64;32.25;35.12;;
67308;Laerm;57662;51.436;5.978;2023-03-01T00:08:36;33.62;32.20;35.14;;
67308;Laerm;57662;51.436;5.978;2023-03-01T00:08:47;33.45;32.07;34.79;;
67308;Laerm;57662;51.436;5.978;2023-03-01T00:08:57;33.50;31.80;34.90;;
67308;Laerm;57662;51.436;5.978;2023-03-01T00:09:08;33.45;31.30;34.87;;
67308;Laerm;57662;51.436;5.978;2023-03-01T00:09:19;33.53;31.83;35.15;;
67308;Laerm;57662;51.436;5.978;2023-03-01T00:09:29;33.60;31.98;35.25;;
67308;Laerm;57662;51.436;5.978;2023-03-01T00:09:40;33.61;31.89;35.01;;
67308;Laerm;57662;51.436;5.978;2023-03-01T00:09:50;33.69;31.97;35.67;;
67308;Laerm;57662;51.436;5.978;2023-03-01T00:10:01;33.73;32.19;35.29;;
67308;Laerm;57662;51.436;5.978;2023-03-01T00:10:11;33.78;32.17;35.36;;
67308;Laerm;57662;51.436;5.978;2023-03-01T00:10:21;33.87;31.91;35.30;;
67308;Laerm;57662;51.436;5.978;2023-03-01T00:10:32;33.78;32.43;35.10;;
67308;Laerm;57662;51.436;5.978;2023-03-01T00:10:42;33.72;32.27;35.01;;
67308;Laerm;57662;51.436;5.978;2023-03-01T00:11:07;33.52;32.11;35.49;;
67308;Laerm;57662;51.436;5.978;2023-03-01T00:11:19;33.62;32.05;35.24;;
67308;Laerm;57662;51.436;5.978;2023-03-01T00:11:31;33.65;32.28;34.89;;
67308;Laerm;57662;51.436;5.978;2023-03-01T00:11:41;33.71;32.40;35.37;;
67308;Laerm;57662;51.436;5.978;2023-03-01T00:11:52;33.68;31.79;34.99;;
67308;Laerm;57662;51.436;5.978;2023-03-01T00:12:02;33.74;32.25;35.22;;
67308;Laerm;57662;51.436;5.978;2023-03-01T00:12:13;33.79;32.60;35.54;;
67308;Laerm;57662;51.436;5.978;2023-03-01T00:12:23;33.65;31.38;35.41;;
67308;Laerm;57662;51.436;5.978;2023-03-01T00:12:34;33.73;31.94;35.30;;
67308;Laerm;57662;51.436;5.978;2023-03-01T00:12:46;33.74;32.12;35.11;;
67308;Laerm;57662;51.436;5.978;2023-03-01T00:12:56;33.58;32.17;34.86;;
67308;Laerm;57662;51.436;5.978;2023-03-01T00:13:07;33.67;31.55;35.12;;
67308;Laerm;57662;51.436;5.978;2023-03-01T00:13:17;33.73;31.90;35.18;;
67308;Laerm;57662;51.436;5.978;2023-03-01T00:13:28;33.63;31.79;35.16;;
67308;Laerm;57662;51.436;5.978;2023-03-01T00:13:39;33.88;32.59;35.41;;
67308;Laerm;57662;51.436;5.978;2023-03-01T00:13:50;33.83;32.49;35.30;;
67308;Laerm;57662;51.436;5.978;2023-03-01T00:14:01;33.67;31.93;35.26;;
67308;Laerm;57662;51.436;5.978;2023-03-01T00:14:12;33.65;31.95;35.27;;
67308;Laerm;57662;51.436;5.978;2023-03-01T00:14:22;33.71;32.06;35.22;;
67308;Laerm;57662;51.436;5.978;2023-03-01T00:14:33;33.72;31.92;35.58;;
67308;Laerm;57662;51.436;5.978;2023-03-01T00:14:44;33.61;32.19;35.21;;
67308;Laerm;57662;51.436;5.978;2023-03-01T00:14:54;33.62;32.20;35.00;;
67308;Laerm;57662;51.436;5.978;2023-03-01T00:15:05;33.66;32.32;34.98;;
67308;Laerm;57662;51.436;5.978;2023-03-01T00:15:16;33.64;31.91;34.99;;
67308;Laerm;57662;51.436;5.978;2023-03-01T00:15:26;33.58;31.53;35.07;;
67308;Laerm;57662;51.436;5.978;2023-03-01T00:15:40;33.60;32.14;34.83;;
67308;Laerm;57662;51.436;5.978;2023-03-01T00:15:51;33.68;32.10;37.28;;
67308;Laerm;57662;51.436;5.978;2023-03-01T00:16:03;33.75;31.90;35.40;;
67308;Laerm;57662;51.436;5.978;2023-03-01T00:16:15;33.77;31.89;35.28;;
67308;Laerm;57662;51.436;5.978;2023-03-01T00:16:27;33.81;32.28;35.32;;
67308;Laerm;57662;51.436;5.978;2023-03-01T00:16:38;33.84;32.01;35.33;;
67308;Laerm;57662;51.436;5.978;2023-03-01T00:16:49;33.76;32.06;35.44;;
67308;Laerm;57662;51.436;5.978;2023-03-01T00:16:59;33.79;32.58;35.45;;
67308;Laerm;57662;51.436;5.978;2023-03-01T00:17:10;33.56;32.00;35.21;;
67308;Laerm;57662;51.436;5.978;2023-03-01T00:17:20;33.71;32.24;35.26;;
67308;Laerm;57662;51.436;5.978;2023-03-01T00:17:31;33.74;32.05;35.12;;
67308;Laerm;57662;51.436;5.978;2023-03-01T00:17:42;33.89;31.72;35.75;;
67308;Laerm;57662;51.436;5.978;2023-03-01T00:17:52;33.84;31.62;35.44;;
67308;Laerm;57662;51.436;5.978;2023-03-01T00:18:03;33.80;32.30;35.26;;
67308;Laerm;57662;51.436;5.978;2023-03-01T00:18:13;33.97;32.47;36.59;;
67308;Laerm;57662;51.436;5.978;2023-03-01T00:18:23;33.95;32.02;37.59;;
67308;Laerm;57662;51.436;5.978;2023-03-01T00:18:34;33.82;31.67;36.17;;
67308;Laerm;57662;51.436;5.978;2023-03-01T00:18:44;33.85;32.38;36.28;;
67308;Laerm;57662;51.436;5.978;2023-03-01T00:18:55;33.94;32.21;36.62;;
67308;Laerm;57662;51.436;5.978;2023-03-01T00:19:07;33.79;32.38;35.44;;
67308;Laerm;57662;51.436;5.978;2023-03-01T00:19:18;33.83;32.23;35.47;;
67308;Laerm;57662;51.436;5.978;2023-03-01T00:19:29;33.80;32.33;35.33;;
67308;Laerm;57662;51.436;5.978;2023-03-01T00:19:39;33.92;32.46;36.19;;
67308;Laerm;57662;51.436;5.978;2023-03-01T00:19:50;33.87;32.42;35.28;;
67308;Laerm;57662;51.436;5.978;2023-03-01T00:20:00;33.80;32.16;35.43;;
67308;Laerm;57662;51.436;5.978;2023-03-01T00:20:11;33.80;32.06;35.32;;
67308;Laerm;57662;51.436;5.978;2023-03-01T00:20:21;33.80;32.47;34.87;;
67308;Laerm;57662;51.436;5.978;2023-03-01T00:20:31;33.95;32.21;35.69;;
67308;Laerm;57662;51.436;5.978;2023-03-01T00:20:48;33.76;32.06;35.49;;
67308;Laerm;57662;51.436;5.978;2023-03-01T00:20:59;33.88;32.18;35.93;;
67308;Laerm;57662;51.436;5.978;2023-03-01T00:21:09;33.82;32.19;35.25;;
67308;Laerm;57662;51.436;5.978;2023-03-01T00:21:20;33.82;32.15;35.11;;
67308;Laerm;57662;51.436;5.978;2023-03-01T00:21:32;33.64;31.98;35.70;;
67308;Laerm;57662;51.436;5.978;2023-03-01T00:21:42;33.86;32.37;35.25;;
67308;Laerm;57662;51.436;5.978;2023-03-01T00:21:53;34.01;32.22;35.69;;
67308;Laerm;57662;51.436;5.978;2023-03-01T00:22:04;34.09;32.49;35.46;;
67308;Laerm;57662;51.436;5.978;2023-03-01T00:22:14;33.90;32.63;35.85;;
67308;Laerm;57662;51.436;5.978;2023-03-01T00:22:26;33.81;32.55;35.42;;
67308;Laerm;57662;51.436;5.978;2023-03-01T00:22:38;33.76;32.34;35.72;;
67308;Laerm;57662;51.436;5.978;2023-03-01T00:22:48;33.75;32.12;35.17;;
67308;Laerm;57662;51.436;5.978;2023-03-01T00:22:59;33.61;31.99;35.08;;
67308;Laerm;57662;51.436;5.978;2023-03-01T00:23:10;33.70;32.12;35.36;;
67308;Laerm;57662;51.436;5.978;2023-03-01T00:23:21;33.58;32.14;35.27;;
67308;Laerm;57662;51.436;5.978;2023-03-01T00:23:33;33.64;31.61;35.05;;
67308;Laerm;57662;51.436;5.978;2023-03-01T00:23:44;33.64;32.01;37.71;;
67308;Laerm;57662;51.436;5.978;2023-03-01T00:23:55;33.73;32.35;35.16;;
67308;Laerm;57662;51.436;5.978;2023-03-01T00:24:05;33.69;32.09;35.45;;
67308;Laerm;57662;51.436;5.978;2023-03-01T00:24:16;33.58;32.10;35.02;;
67308;Laerm;57662;51.436;5.978;2023-03-01T00:24:26;33.75;32.14;34.98;;
67308;Laerm;57662;51.436;5.978;2023-03-01T00:24:37;33.82;32.34;35.06;;
67308;Laerm;57662;51.436;5.978;2023-03-01T00:24:47;33.83;32.34;34.98;;
67308;Laerm;57662;51.436;5.978;2023-03-01T00:24:58;33.73;32.15;35.28;;
67308;Laerm;57662;51.436;5.978;2023-03-01T00:25:08;33.66;31.88;35.19;;
67308;Laerm;57662;51.436;5.978;2023-03-01T00:25:19;33.63;31.91;35.19;;
67308;Laerm;57662;51.436;5.978;2023-03-01T00:25:29;33.69;32.12;35.13;;
67308;Laerm;57662;51.436;5.978;2023-03-01T00:25:43;33.75;32.11;35.02;;
67308;Laerm;57662;51.436;5.978;2023-03-01T00:25:54;33.70;32.06;34.99;;
67308;Laerm;57662;51.436;5.978;2023-03-01T00:26:08;33.68;32.22;34.96;;
67308;Laerm;57662;51.436;5.978;2023-03-01T00:26:20;33.79;32.11;35.12;;
67308;Laerm;57662;51.436;5.978;2023-03-01T00:26:30;33.71;32.44;34.98;;
67308;Laerm;57662;51.436;5.978;2023-03-01T00:26:41;33.84;32.14;35.46;;
67308;Laerm;57662;51.436;5.978;2023-03-01T00:26:54;34.20;32.52;35.77;;
67308;Laerm;57662;51.436;5.978;2023-03-01T00:27:05;33.76;31.76;35.21;;
67308;Laerm;57662;51.436;5.978;2023-03-01T00:27:16;33.87;32.16;35.80;;
67308;Laerm;57662;51.436;5.978;2023-03-01T00:27:26;33.79;32.26;35.12;;
67308;Laerm;57662;51.436;5.978;2023-03-01T00:27:36;33.61;32.08;35.37;;
67308;Laerm;57662;51.436;5.978;2023-03-01T00:27:47;33.59;31.57;34.90;;
67308;Laerm;57662;51.436;5.978;2023-03-01T00:27:59;33.63;31.84;35.15;;
67308;Laerm;57662;51.436;5.978;2023-03-01T00:28:09;33.80;32.31;35.37;;
67308;Laerm;57662;51.436;5.978;2023-03-01T00:28:19;33.73;31.91;35.07;;
67308;Laerm;57662;51.436;5.978;2023-03-01T00:28:30;33.71;32.26;35.26;;
67308;Laerm;57662;51.436;5.978;2023-03-01T00:28:42;33.62;32.33;35.30;;
67308;Laerm;57662;51.436;5.978;2023-03-01T00:28:53;33.66;32.11;35.06;;
67308;Laerm;57662;51.436;5.978;2023-03-01T00:29:04;33.61;32.12;35.15;;
67308;Laerm;57662;51.436;5.978;2023-03-01T00:29:14;33.76;32.01;35.07;;
67308;Laerm;57662;51.436;5.978;2023-03-01T00:29:25;33.70;31.93;35.89;;
67308;Laerm;57662;51.436;5.978;2023-03-01T00:29:35;33.60;31.86;35.10;;
67308;Laerm;57662;51.436;5.978;2023-03-01T00:29:45;33.64;32.15;36.28;;
67308;Laerm;57662;51.436;5.978;2023-03-01T00:29:56;33.69;32.27;35.38;;
67308;Laerm;57662;51.436;5.978;2023-03-01T00:30:06;33.63;31.86;34.93;;
67308;Laerm;57662;51.436;5.978;2023-03-01T00:30:17;33.71;32.31;35.18;;
67308;Laerm;57662;51.436;5.978;2023-03-01T00:30:27;33.67;32.35;35.29;;
67308;Laerm;57662;51.436;5.978;2023-03-01T00:30:38;33.78;32.02;36.80;;
67308;Laerm;57662;51.436;5.978;2023-03-01T00:30:48;33.73;32.32;35.03;;
67308;Laerm;57662;51.436;5.978;2023-03-01T00:31:05;33.80;32.11;35.02;;
67308;Laerm;57662;51.436;5.978;2023-03-01T00:31:18;39.88;31.99;55.94;;
67308;Laerm;57662;51.436;5.978;2023-03-01T00:31:30;33.75;32.07;35.35;;
67308;Laerm;57662;51.436;5.978;2023-03-01T00:31:40;33.71;32.05;34.88;;
67308;Laerm;57662;51.436;5.978;2023-03-01T00:31:51;33.68;32.31;35.36;;
67308;Laerm;57662;51.436;5.978;2023-03-01T00:32:02;33.70;32.03;34.89;;
67308;Laerm;57662;51.436;5.978;2023-03-01T00:32:12;33.96;32.11;38.35;;
67308;Laerm;57662;51.436;5.978;2023-03-01T00:32:22;33.88;32.37;36.73;;
67308;Laerm;57662;51.436;5.978;2023-03-01T00:32:33;33.76;31.67;35.46;;
67308;Laerm;57662;51.436;5.978;2023-03-01T00:32:43;33.89;32.56;35.39;;
67308;Laerm;57662;51.436;5.978;2023-03-01T00:32:53;33.78;32.30;35.33;;
67308;Laerm;57662;51.436;5.978;2023-03-01T00:33:04;33.60;32.16;35.23;;
67308;Laerm;57662;51.436;5.978;2023-03-01T00:33:15;33.62;32.25;34.99;;
67308;Laerm;57662;51.436;5.978;2023-03-01T00:33:25;33.68;32.09;34.91;;
67308;Laerm;57662;51.436;5.978;2023-03-01T00:33:36;33.66;31.90;35.19;;
67308;Laerm;57662;51.436;5.978;2023-03-01T00:33:46;33.76;32.07;35.23;;
67308;Laerm;57662;51.436;5.978;2023-03-01T00:33:57;33.70;32.31;35.24;;
67308;Laerm;57662;51.436;5.978;2023-03-01T00:34:09;33.76;32.20;35.24;;
67308;Laerm;57662;51.436;5.978;2023-03-01T00:34:19;33.55;31.72;34.87;;
67308;Laerm;57662;51.436;5.978;2023-03-01T00:34:29;33.54;31.74;34.83;;
67308;Laerm;57662;51.436;5.978;2023-03-01T00:34:40;33.60;31.68;35.25;;
67308;Laerm;57662;51.436;5.978;2023-03-01T00:34:50;33.56;31.68;35.12;;
67308;Laerm;57662;51.436;5.978;2023-03-01T00:35:06;33.72;32.04;37.36;;
67308;Laerm;57662;51.436;5.978;2023-03-01T00:35:17;33.70;32.27;35.19;;
67308;Laerm;57662;51.436;5.978;2023-03-01T00:35:27;33.64;31.94;35.07;;
67308;Laerm;57662;51.436;5.978;2023-03-01T00:35:37;33.70;31.78;35.34;;
67308;Laerm;57662;51.436;5.978;2023-03-01T00:35:48;33.74;32.25;35.19;;
67308;Laerm;57662;51.436;5.978;2023-03-01T00:35:59;33.76;31.72;34.96;;
67308;Laerm;57662;51.436;5.978;2023-03-01T00:36:10;33.81;32.31;35.33;;
67308;Laerm;57662;51.436;5.978;2023-03-01T00:36:20;37.49;32.77;44.02;;
67308;Laerm;57662;51.436;5.978;2023-03-01T00:36:34;44.90;40.20;48.40;;
67308;Laerm;57662;51.436;5.978;2023-03-01T00:36:45;43.27;38.22;46.72;;
67308;Laerm;57662;51.436;5.978;2023-03-01T00:36:56;44.01;39.22;49.06;;
67308;Laerm;57662;51.436;5.978;2023-03-01T00:37:15;70.81;47.74;75.79;;
67308;Laerm;57662;51.436;5.978;2023-03-01T00:37:26;73.98;70.72;77.02;;
67308;Laerm;57662;51.436;5.978;2023-03-01T00:37:36;66.04;48.55;75.03;;
67308;Laerm;57662;51.436;5.978;2023-03-01T00:37:46;47.70;45.18;51.31;;
67308;Laerm;57662;51.436;5.978;2023-03-01T00:37:57;47.42;44.15;49.87;;
67308;Laerm;57662;51.436;5.978;2023-03-01T00:38:08;47.25;44.68;52.04;;
67308;Laerm;57662;51.436;5.978;2023-03-01T00:38:18;47.52;43.78;50.58;;
67308;Laerm;57662;51.436;5.978;2023-03-01T00:38:29;45.78;42.08;48.97;;
67308;Laerm;57662;51.436;5.978;2023-03-01T00:38:40;41.39;36.60;45.32;;
67308;Laerm;57662;51.436;5.978;2023-03-01T00:38:51;38.17;35.62;40.81;;
67308;Laerm;57662;51.436;5.978;2023-03-01T00:39:02;37.92;35.00;40.69;;
67308;Laerm;57662;51.436;5.978;2023-03-01T00:39:14;37.36;34.68;40.05;;
67308;Laerm;57662;51.436;5.978;2023-03-01T00:39:25;38.79;34.89;42.61;;
67308;Laerm;57662;51.436;5.978;2023-03-01T00:39:35;37.38;34.56;40.41;;
67308;Laerm;57662;51.436;5.978;2023-03-01T00:39:46;36.32;34.15;38.52;;
67308;Laerm;57662;51.436;5.978;2023-03-01T00:39:56;38.46;35.02;41.10;;
67308;Laerm;57662;51.436;5.978;2023-03-01T00:40:07;37.46;34.63;39.91;;
67308;Laerm;57662;51.436;5.978;2023-03-01T00:40:17;36.50;33.79;39.67;;
67308;Laerm;57662;51.436;5.978;2023-03-01T00:40:28;43.07;34.30;47.48;;
67308;Laerm;57662;51.436;5.978;2023-03-01T00:40:39;44.24;40.02;48.00;;
67308;Laerm;57662;51.436;5.978;2023-03-01T00:40:50;44.62;38.91;48.95;;
67308;Laerm;57662;51.436;5.978;2023-03-01T00:41:07;65.32;46.22;69.97;;
67308;Laerm;57662;51.436;5.978;2023-03-01T00:41:18;49.00;36.60;58.86;;
67308;Laerm;57662;51.436;5.978;2023-03-01T00:41:28;38.59;36.09;44.85;;
67308;Laerm;57662;51.436;5.978;2023-03-01T00:41:39;39.06;35.22;43.06;;
67308;Laerm;57662;51.436;5.978;2023-03-01T00:41:50;38.03;34.51;41.26;;
67308;Laerm;57662;51.436;5.978;2023-03-01T00:42:00;37.01;33.97;40.99;;
67308;Laerm;57662;51.436;5.978;2023-03-01T00:42:11;34.55;32.60;36.46;;
67308;Laerm;57662;51.436;5.978;2023-03-01T00:42:21;34.73;33.17;36.60;;
67308;Laerm;57662;51.436;5.978;2023-03-01T00:42:32;34.24;32.69;35.91;;
67308;Laerm;57662;51.436;5.978;2023-03-01T00:42:43;34.59;31.89;37.05;;
67308;Laerm;57662;51.436;5.978;2023-03-01T00:42:53;34.13;32.60;35.71;;
67308;Laerm;57662;51.436;5.978;2023-03-01T00:43:03;34.10;32.56;35.65;;
67308;Laerm;57662;51.436;5.978;2023-03-01T00:43:14;34.00;32.34;35.70;;
67308;Laerm;57662;51.436;5.978;2023-03-01T00:43:24;34.02;32.40;35.65;;
67308;Laerm;57662;51.436;5.978;2023-03-01T00:43:35;33.94;31.28;35.41;;
67308;Laerm;57662;51.436;5.978;2023-03-01T00:43:49;33.94;32.21;35.35;;
67308;Laerm;57662;51.436;5.978;2023-03-01T00:43:59;34.24;32.29;36.18;;
67308;Laerm;57662;51.436;5.978;2023-03-01T00:44:10;34.30;32.57;35.81;;
67308;Laerm;57662;51.436;5.978;2023-03-01T00:44:20;35.96;32.85;39.72;;
67308;Laerm;57662;51.436;5.978;2023-03-01T00:44:31;34.66;32.21;36.78;;
67308;Laerm;57662;51.436;5.978;2023-03-01T00:44:41;36.76;32.48;41.46;;
67308;Laerm;57662;51.436;5.978;2023-03-01T00:44:52;34.46;32.10;37.79;;
67308;Laerm;57662;51.436;5.978;2023-03-01T00:45:03;33.99;32.03;35.52;;
67308;Laerm;57662;51.436;5.978;2023-03-01T00:45:13;34.01;32.28;35.47;;
67308;Laerm;57662;51.436;5.978;2023-03-01T00:45:23;33.95;32.32;35.37;;
67308;Laerm;57662;51.436;5.978;2023-03-01T00:45:34;33.88;32.50;35.94;;
67308;Laerm;57662;51.436;5.978;2023-03-01T00:45:44;33.94;32.42;35.53;;
67308;Laerm;57662;51.436;5.978;2023-03-01T00:45:55;33.74;32.21;35.46;;
67308;Laerm;57662;51.436;5.978;2023-03-01T00:46:07;33.81;32.08;35.21;;
67308;Laerm;57662;51.436;5.978;2023-03-01T00:46:18;33.87;32.58;35.75;;
67308;Laerm;57662;51.436;5.978;2023-03-01T00:46:29;33.85;32.51;35.17;;
67308;Laerm;57662;51.436;5.978;2023-03-01T00:46:40;34.01;32.71;35.61;;
67308;Laerm;57662;51.436;5.978;2023-03-01T00:46:51;34.04;32.70;35.76;;
67308;Laerm;57662;51.436;5.978;2023-03-01T00:47:01;33.94;32.44;35.34;;
67308;Laerm;57662;51.436;5.978;2023-03-01T00:47:12;33.76;32.32;35.12;;
67308;Laerm;57662;51.436;5.978;2023-03-01T00:47:22;33.80;32.28;39.32;;
67308;Laerm;57662;51.436;5.978;2023-03-01T00:47:32;33.85;32.09;37.67;;
67308;Laerm;57662;51.436;5.978;2023-03-01T00:47:43;33.70;31.98;35.18;;
67308;Laerm;57662;51.436;5.978;2023-03-01T00:47:53;33.80;31.89;35.10;;
67308;Laerm;57662;51.436;5.978;2023-03-01T00:48:04;33.91;32.20;35.84;;
67308;Laerm;57662;51.436;5.978;2023-03-01T00:48:15;33.80;32.27;35.57;;
67308;Laerm;57662;51.436;5.978;2023-03-01T00:48:26;33.79;32.27;35.21;;
67308;Laerm;57662;51.436;5.978;2023-03-01T00:48:36;33.88;32.54;35.24;;
67308;Laerm;57662;51.436;5.978;2023-03-01T00:48:47;33.81;32.02;35.17;;
67308;Laerm;57662;51.436;5.978;2023-03-01T00:48:58;33.98;32.60;35.53;;
67308;Laerm;57662;51.436;5.978;2023-03-01T00:49:11;33.91;32.25;35.44;;
67308;Laerm;57662;51.436;5.978;2023-03-01T00:49:22;33.81;31.88;35.41;;
67308;Laerm;57662;51.436;5.978;2023-03-01T00:49:34;34.05;32.52;35.40;;
67308;Laerm;57662;51.436;5.978;2023-03-01T00:49:44;33.99;32.40;35.52;;
67308;Laerm;57662;51.436;5.978;2023-03-01T00:49:55;34.16;32.74;35.66;;
67308;Laerm;57662;51.436;5.978;2023-03-01T00:50:06;33.86;32.53;35.41;;
67308;Laerm;57662;51.436;5.978;2023-03-01T00:50:17;33.67;31.87;35.21;;
67308;Laerm;57662;51.436;5.978;2023-03-01T00:50:28;33.82;32.23;35.30;;
67308;Laerm;57662;51.436;5.978;2023-03-01T00:50:38;33.86;32.10;35.80;;
67308;Laerm;57662;51.436;5.978;2023-03-01T00:50:48;33.78;32.34;35.56;;
67308;Laerm;57662;51.436;5.978;2023-03-01T00:51:04;34.06;32.19;35.56;;
67308;Laerm;57662;51.436;5.978;2023-03-01T00:51:16;33.80;32.32;35.20;;
67308;Laerm;57662;51.436;5.978;2023-03-01T00:51:28;33.66;32.04;34.93;;
67308;Laerm;57662;51.436;5.978;2023-03-01T00:51:38;33.75;32.12;35.43;;
67308;Laerm;57662;51.436;5.978;2023-03-01T00:51:51;33.79;31.77;35.37;;
67308;Laerm;57662;51.436;5.978;2023-03-01T00:52:02;33.76;32.21;35.19;;
67308;Laerm;57662;51.436;5.978;2023-03-01T00:52:12;33.59;32.16;34.87;;
67308;Laerm;57662;51.436;5.978;2023-03-01T00:52:22;33.64;31.73;35.37;;
67308;Laerm;57662;51.436;5.978;2023-03-01T00:52:33;33.73;31.77;35.50;;
67308;Laerm;57662;51.436;5.978;2023-03-01T00:52:43;33.70;32.28;35.12;;
67308;Laerm;57662;51.436;5.978;2023-03-01T00:52:55;33.89;32.35;35.52;;
67308;Laerm;57662;51.436;5.978;2023-03-01T00:53:05;33.85;31.97;35.37;;
67308;Laerm;57662;51.436;5.978;2023-03-01T00:53:15;33.71;32.19;35.09;;
67308;Laerm;57662;51.436;5.978;2023-03-01T00:53:26;33.76;31.69;35.10;;
67308;Laerm;57662;51.436;5.978;2023-03-01T00:53:36;33.65;32.02;34.98;;
67308;Laerm;57662;51.436;5.978;2023-03-01T00:53:49;33.72;32.09;35.24;;
67308;Laerm;57662;51.436;5.978;2023-03-01T00:54:01;33.96;32.40;35.50;;
67308;Laerm;57662;51.436;5.978;2023-03-01T00:54:11;33.71;31.94;35.13;;
67308;Laerm;57662;51.436;5.978;2023-03-01T00:54:22;33.62;31.94;34.87;;
67308;Laerm;57662;51.436;5.978;2023-03-01T00:54:33;33.56;32.24;34.74;;
67308;Laerm;57662;51.436;5.978;2023-03-01T00:54:43;33.57;32.07;35.16;;
67308;Laerm;57662;51.436;5.978;2023-03-01T00:54:53;33.65;32.34;35.18;;
67308;Laerm;57662;51.436;5.978;2023-03-01T00:55:04;33.66;32.11;34.96;;
67308;Laerm;57662;51.436;5.978;2023-03-01T00:55:14;33.74;31.88;35.51;;
67308;Laerm;57662;51.436;5.978;2023-03-01T00:55:25;33.70;32.01;35.37;;
67308;Laerm;57662;51.436;5.978;2023-03-01T00:55:35;33.72;32.31;35.01;;
67308;Laerm;57662;51.436;5.978;2023-03-01T00:55:46;33.67;32.05;35.66;;
67308;Laerm;57662;51.436;5.978;2023-03-01T00:55:56;33.65;32.26;35.07;;
67308;Laerm;57662;51.436;5.978;2023-03-01T00:56:08;33.70;32.23;35.42;;
67308;Laerm;57662;51.436;5.978;2023-03-01T00:56:18;33.67;31.98;35.29;;
67308;Laerm;57662;51.436;5.978;2023-03-01T00:56:29;33.71;31.66;35.69;;
67308;Laerm;57662;51.436;5.978;2023-03-01T00:56:40;33.75;32.08;35.22;;
67308;Laerm;57662;51.436;5.978;2023-03-01T00:56:50;33.77;32.17;35.25;;
67308;Laerm;57662;51.436;5.978;2023-03-01T00:57:00;33.78;32.06;35.43;;
67308;Laerm;57662;51.436;5.978;2023-03-01T00:57:11;33.80;32.42;35.34;;
67308;Laerm;57662;51.436;5.978;2023-03-01T00:57:21;33.88;32.57;35.30;;
67308;Laerm;57662;51.436;5.978;2023-03-01T00:57:32;33.93;32.27;35.63;;
67308;Laerm;57662;51.436;5.978;2023-03-01T00:57:43;33.83;32.20;35.48;;
67308;Laerm;57662;51.436;5.978;2023-03-01T00:57:53;33.80;32.32;35.34;;
67308;Laerm;57662;51.436;5.978;2023-03-01T00:58:03;33.81;32.48;35.47;;
67308;Laerm;57662;51.436;5.978;2023-03-01T00:58:14;33.73;32.32;35.18;;
67308;Laerm;57662;51.436;5.978;2023-03-01T00:58:24;33.75;32.18;34.94;;
67308;Laerm;57662;51.436;5.978;2023-03-01T00:58:35;33.52;32.16;34.63;;
67308;Laerm;57662;51.436;5.978;2023-03-01T00:58:46;33.57;32.01;35.04;;
67308;Laerm;57662;51.436;5.978;2023-03-01T00:58:56;33.65;31.54;35.08;;
67308;Laerm;57662;51.436;5.978;2023-03-01T00:59:07;33.76;32.14;35.52;;
67308;Laerm;57662;51.436;5.978;2023-03-01T00:59:17;33.69;32.29;35.08;;
67308;Laerm;57662;51.436;5.978;2023-03-01T00:59:27;33.78;31.95;35.65;;
67308;Laerm;57662;51.436;5.978;2023-03-01T00:59:38;33.61;32.30;34.85;;
67308;Laerm;57662;51.436;5.978;2023-03-01T00:59:48;33.71;31.93;35.23;;
67308;Laerm;57662;51.436;5.978;2023-03-01T00:59:59;33.77;31.94;35.32;;
67308;Laerm;57662;51.436;5.978;2023-03-01T01:00:10;42.92;32.37;56.64;;
67308;Laerm;57662;51.436;5.978;2023-03-01T01:00:21;33.90;31.92;36.88;;
67308;Laerm;57662;51.436;5.978;2023-03-01T01:00:32;33.79;32.25;35.28;;
67308;Laerm;57662;51.436;5.978;2023-03-01T01:00:42;33.85;32.54;35.22;;
67308;Laerm;57662;51.436;5.978;2023-03-01T01:00:52;33.71;32.41;35.13;;
67308;Laerm;57662;51.436;5.978;2023-03-01T01:01:13;33.73;32.06;35.68;;
67308;Laerm;57662;51.436;5.978;2023-03-01T01:01:28;33.54;31.73;35.05;;